createdAt,value
2023-04-25T00:00:26.427Z,6.80
2023-04-25T00:02:54.467Z,6.80
2023-04-25T00:05:24.311Z,6.80
2023-04-25T00:07:52.411Z,6.90
2023-04-25T00:10:20.445Z,6.90
2023-04-25T00:12:48.836Z,6.90
2023-04-25T00:15:17.036Z,6.90
2023-04-25T00:17:46.567Z,6.90
2023-04-25T00:20:14.583Z,6.80
2023-04-25T00:22:43.794Z,6.80
2023-04-25T00:25:11.711Z,6.70
2023-04-25T00:27:40.109Z,6.70
2023-04-25T00:30:08.466Z,6.70
2023-04-25T00:32:36.396Z,6.70
2023-04-25T00:35:04.272Z,6.60
2023-04-25T00:37:32.163Z,6.60
2023-04-25T00:40:01.362Z,6.60
2023-04-25T00:42:29.200Z,6.50
2023-04-25T00:44:57.606Z,6.50
2023-04-25T00:47:25.983Z,6.50
2023-04-25T00:49:54.283Z,6.50
2023-04-25T00:52:22.528Z,6.40
2023-04-25T00:54:50.482Z,6.40
2023-04-25T00:57:19.747Z,6.40
2023-04-25T00:59:47.978Z,6.30
2023-04-25T01:02:15.995Z,6.30
2023-04-25T01:04:44.094Z,6.30
2023-04-25T01:07:12.516Z,6.30
2023-04-25T01:09:40.514Z,6.20
2023-04-25T01:12:08.772Z,6.20
2023-04-25T01:14:37.973Z,6.10
2023-04-25T01:17:06.320Z,6.10
2023-04-25T01:19:34.344Z,6.00
2023-04-25T01:22:04.637Z,6.00
2023-04-25T01:24:33.329Z,5.90
2023-04-25T01:27:02.188Z,5.90
2023-04-25T01:29:30.335Z,5.80
2023-04-25T01:31:59.506Z,5.70
2023-04-25T01:34:27.430Z,5.60
2023-04-25T01:36:56.404Z,5.50
2023-04-25T01:39:25.796Z,5.40
2023-04-25T01:41:53.777Z,5.30
2023-04-25T01:44:21.701Z,5.30
2023-04-25T01:46:49.648Z,5.10
2023-04-25T01:49:17.505Z,5.10
2023-04-25T01:51:45.608Z,5.00
2023-04-25T01:54:14.664Z,5.00
2023-04-25T01:56:43.900Z,4.90
2023-04-25T01:59:11.781Z,4.80
2023-04-25T02:01:39.688Z,4.80
2023-04-25T02:04:07.740Z,4.70
2023-04-25T02:06:35.790Z,4.70
2023-04-25T02:09:03.775Z,4.70
2023-04-25T02:11:31.627Z,4.70
2023-04-25T02:14:00.843Z,4.70
2023-04-25T02:16:28.819Z,4.70
2023-04-25T02:18:56.790Z,4.50
2023-04-25T02:21:24.881Z,4.40
2023-04-25T02:23:53.252Z,4.40
2023-04-25T02:26:21.979Z,4.30
2023-04-25T02:28:50.133Z,4.20
2023-04-25T02:31:19.355Z,4.20
2023-04-25T02:33:47.296Z,4.10
2023-04-25T02:36:15.963Z,4.00
2023-04-25T02:38:43.801Z,3.90
2023-04-25T02:41:11.614Z,3.80
2023-04-25T02:43:39.489Z,3.80
2023-04-25T02:46:07.384Z,3.80
2023-04-25T02:48:36.652Z,3.60
2023-04-25T02:51:04.683Z,3.60
2023-04-25T02:53:32.516Z,3.50
2023-04-25T02:56:00.396Z,3.50
2023-04-25T02:58:28.287Z,3.50
2023-04-25T03:00:56.359Z,3.40
2023-04-25T03:03:24.303Z,3.30
2023-04-25T03:05:53.959Z,3.30
2023-04-25T03:08:21.841Z,3.20
2023-04-25T03:10:51.172Z,3.20
2023-04-25T03:13:19.032Z,3.10
2023-04-25T03:15:46.838Z,3.10
2023-04-25T03:18:14.666Z,3.10
2023-04-25T03:20:42.979Z,3.00
2023-04-25T03:23:12.188Z,3.00
2023-04-25T03:25:39.989Z,3.00
2023-04-25T03:28:07.925Z,3.00
2023-04-25T03:30:35.894Z,3.00
2023-04-25T03:33:03.825Z,2.90
2023-04-25T03:35:31.747Z,2.90
2023-04-25T03:37:59.622Z,2.90
2023-04-25T03:40:28.891Z,2.90
2023-04-25T03:42:56.978Z,2.80
2023-04-25T03:45:24.817Z,2.70
2023-04-25T03:47:52.810Z,2.80
2023-04-25T03:50:20.752Z,2.80
2023-04-25T03:52:48.623Z,2.70
2023-04-25T03:55:16.558Z,2.80
2023-04-25T03:57:45.901Z,2.70
2023-04-25T04:00:14.495Z,2.80
2023-04-25T04:02:44.696Z,2.80
2023-04-25T04:05:13.438Z,2.80
2023-04-25T04:07:43.535Z,2.80
2023-04-25T04:10:11.840Z,2.80
2023-04-25T04:12:39.753Z,2.90
2023-04-25T04:15:09.896Z,3.00
2023-04-25T04:17:37.846Z,3.00
2023-04-25T04:20:06.911Z,3.00
2023-04-25T04:22:34.799Z,3.00
2023-04-25T04:25:03.584Z,3.10
2023-04-25T04:27:31.447Z,3.10
2023-04-25T04:29:59.419Z,3.10
2023-04-25T04:32:29.058Z,3.10
2023-04-25T04:34:56.957Z,3.10
2023-04-25T04:37:25.037Z,3.20
2023-04-25T04:39:52.952Z,3.30
2023-04-25T04:42:22.213Z,3.30
2023-04-25T04:44:50.105Z,3.30
2023-04-25T04:47:17.975Z,3.40
2023-04-25T04:49:47.186Z,3.50
2023-04-25T04:52:15.048Z,3.50
2023-04-25T04:54:42.973Z,3.60
2023-04-25T04:57:10.901Z,3.70
2023-04-25T04:59:38.826Z,3.90
2023-04-25T05:02:06.774Z,4.00
2023-04-25T05:04:34.765Z,4.00
2023-04-25T05:07:04.191Z,4.10
2023-04-25T05:09:32.083Z,4.10
2023-04-25T05:11:59.966Z,4.20
2023-04-25T05:14:27.794Z,4.30
2023-04-25T05:16:55.887Z,4.40
2023-04-25T05:19:24.517Z,4.60
2023-04-25T05:21:52.452Z,4.70
2023-04-25T05:24:21.717Z,4.80
2023-04-25T05:26:49.582Z,5.00
2023-04-25T05:29:17.522Z,5.10
2023-04-25T05:31:45.958Z,5.20
2023-04-25T05:34:13.809Z,5.40
2023-04-25T05:36:41.957Z,5.60
2023-04-25T05:39:09.957Z,5.90
2023-04-25T05:41:39.147Z,6.10
2023-04-25T05:44:07.036Z,6.40
2023-04-25T05:46:34.995Z,6.60
2023-04-25T05:49:03.016Z,6.70
2023-04-25T05:51:30.962Z,6.80
2023-04-25T05:53:58.849Z,6.90
2023-04-25T05:56:26.735Z,7.00
2023-04-25T05:58:56.080Z,7.10
2023-04-25T06:01:24.177Z,7.20
2023-04-25T06:03:53.956Z,7.30
2023-04-25T06:06:22.200Z,7.40
2023-04-25T06:08:50.125Z,7.60
2023-04-25T06:11:18.001Z,7.70
2023-04-25T06:13:45.820Z,7.70
2023-04-25T06:16:15.102Z,7.80
2023-04-25T06:18:43.026Z,7.90
2023-04-25T06:21:10.895Z,8.00
2023-04-25T06:23:38.747Z,8.20
2023-04-25T06:26:06.628Z,8.50
2023-04-25T06:28:34.564Z,8.80
2023-04-25T06:31:02.580Z,9.00
2023-04-25T06:33:31.907Z,9.00
2023-04-25T06:35:59.817Z,9.10
2023-04-25T06:38:27.706Z,9.10
2023-04-25T06:40:55.527Z,9.30
2023-04-25T06:43:23.394Z,9.40
2023-04-25T06:45:51.241Z,9.50
2023-04-25T06:48:19.469Z,9.50
2023-04-25T06:50:48.713Z,9.50
2023-04-25T06:53:16.598Z,9.60
2023-04-25T06:55:44.403Z,9.60
2023-04-25T06:58:12.295Z,9.70
2023-04-25T07:00:40.157Z,9.70
2023-04-25T07:03:08.101Z,9.70
2023-04-25T07:05:36.096Z,9.80
2023-04-25T07:08:05.379Z,9.80
2023-04-25T07:10:33.305Z,9.90
2023-04-25T07:13:01.181Z,9.90
2023-04-25T07:15:29.026Z,10.00
2023-04-25T07:17:56.936Z,10.00
2023-04-25T07:20:24.890Z,10.10
2023-04-25T07:22:52.811Z,10.10
2023-04-25T07:25:22.107Z,10.00
2023-04-25T07:27:49.914Z,10.00
2023-04-25T07:30:17.853Z,10.00
2023-04-25T07:32:46.415Z,10.00
2023-04-25T07:35:14.323Z,9.90
2023-04-25T07:37:42.190Z,9.90
2023-04-25T07:40:11.069Z,9.80
2023-04-25T07:42:40.633Z,10.20
2023-04-25T07:45:10.240Z,10.50
2023-04-25T07:47:39.237Z,10.90
2023-04-25T07:50:07.704Z,11.20
2023-04-25T07:52:35.646Z,11.60
2023-04-25T07:55:04.195Z,12.10
2023-04-25T07:57:32.138Z,12.40
2023-04-25T08:00:01.469Z,12.70
2023-04-25T08:02:29.459Z,12.70
2023-04-25T08:04:57.716Z,12.60
2023-04-25T08:07:26.134Z,12.60
2023-04-25T08:09:54.050Z,12.50
2023-04-25T08:12:23.499Z,12.40
2023-04-25T08:14:51.610Z,12.20
2023-04-25T08:17:20.911Z,12.20
2023-04-25T08:19:48.857Z,12.20
2023-04-25T08:22:17.029Z,12.20
2023-04-25T08:24:44.933Z,12.20
2023-04-25T08:27:13.309Z,12.10
2023-04-25T08:29:41.198Z,12.30
2023-04-25T08:32:09.177Z,12.30
2023-04-25T08:34:40.482Z,12.30
2023-04-25T08:37:09.210Z,12.40
2023-04-25T08:39:37.183Z,12.50
2023-04-25T08:42:08.155Z,12.60
2023-04-25T08:44:36.175Z,12.70
2023-04-25T08:47:05.185Z,13.00
2023-04-25T08:49:33.758Z,13.70
2023-04-25T08:52:04.909Z,14.20
2023-04-25T08:54:35.757Z,14.40
2023-04-25T08:57:05.253Z,14.30
2023-04-25T08:59:35.194Z,14.10
2023-04-25T09:02:04.094Z,13.90
2023-04-25T09:04:32.516Z,13.70
2023-04-25T09:07:00.471Z,13.50
2023-04-25T09:09:29.686Z,13.40
2023-04-25T09:11:57.954Z,13.10
2023-04-25T09:14:26.883Z,12.80
2023-04-25T09:17:01.499Z,12.50
2023-04-25T09:19:39.626Z,12.10
2023-04-25T09:22:09.730Z,11.70
2023-04-25T09:24:40.369Z,11.30
2023-04-25T09:27:08.925Z,11.10
2023-04-25T09:29:38.542Z,10.90
2023-04-25T09:32:17.995Z,10.80
2023-04-25T09:34:49.127Z,10.70
2023-04-25T09:37:21.431Z,10.70
2023-04-25T09:39:51.324Z,10.70
2023-04-25T09:42:19.673Z,10.80
2023-04-25T09:44:48.135Z,10.80
2023-04-25T09:47:17.411Z,11.40
2023-04-25T09:49:45.808Z,11.90
2023-04-25T09:52:16.771Z,12.50
2023-04-25T09:54:44.838Z,13.10
2023-04-25T09:57:15.901Z,13.80
2023-04-25T09:59:47.489Z,14.10
2023-04-25T10:02:16.086Z,14.20
2023-04-25T10:04:44.632Z,13.80
2023-04-25T10:07:13.116Z,13.30
2023-04-25T10:09:41.715Z,13.00
2023-04-25T10:12:10.073Z,12.50
2023-04-25T10:14:39.878Z,12.10
2023-04-25T10:17:07.956Z,11.50
2023-04-25T10:19:35.901Z,11.00
2023-04-25T10:22:06.464Z,10.50
2023-04-25T10:24:34.342Z,10.20
2023-04-25T10:27:02.728Z,10.00
2023-04-25T10:29:30.641Z,9.70
2023-04-25T10:31:59.999Z,9.60
2023-04-25T10:34:40.518Z,9.90
2023-04-25T10:37:10.625Z,10.40
2023-04-25T10:39:40.008Z,10.80
2023-04-25T10:42:08.763Z,10.70
2023-04-25T10:44:38.750Z,10.60
2023-04-25T10:47:09.105Z,11.00
2023-04-25T10:49:37.971Z,11.20
2023-04-25T10:52:26.418Z,10.80
2023-04-25T10:54:55.648Z,11.10
2023-04-25T10:57:30.759Z,11.70
2023-04-25T11:00:06.077Z,12.40
2023-04-25T11:02:38.755Z,13.30
2023-04-25T11:05:07.292Z,13.90
2023-04-25T11:07:39.458Z,14.40
2023-04-25T11:10:07.831Z,14.90
2023-04-25T11:12:35.705Z,15.10
2023-04-25T11:15:04.458Z,15.40
2023-04-25T11:17:32.710Z,15.30
2023-04-25T11:20:02.252Z,15.30
2023-04-25T11:22:30.898Z,15.30
2023-04-25T11:24:58.761Z,15.30
2023-04-25T11:27:26.792Z,15.20
2023-04-25T11:29:54.628Z,15.20
2023-04-25T11:32:23.317Z,15.30
2023-04-25T11:34:54.470Z,15.50
2023-04-25T11:37:23.724Z,16.10
2023-04-25T11:39:51.599Z,16.90
2023-04-25T11:42:20.914Z,17.30
2023-04-25T11:44:48.931Z,17.40
2023-04-25T11:47:16.873Z,18.00
2023-04-25T11:49:44.827Z,17.90
2023-04-25T11:52:12.941Z,17.80
2023-04-25T11:54:42.223Z,18.10
2023-04-25T11:57:10.097Z,18.50
2023-04-25T11:59:38.002Z,19.00
2023-04-25T12:02:07.986Z,18.90
2023-04-25T12:04:36.087Z,18.90
2023-04-25T12:07:04.237Z,18.70
2023-04-25T12:09:32.923Z,18.70
2023-04-25T12:12:04.312Z,18.80
2023-04-25T12:14:33.393Z,18.20
2023-04-25T12:17:02.055Z,17.90
2023-04-25T12:19:35.331Z,17.60
2023-04-25T12:22:04.292Z,17.00
2023-04-25T12:24:38.811Z,16.40
2023-04-25T12:27:09.305Z,15.80
2023-04-25T12:29:49.269Z,15.40
2023-04-25T12:32:17.927Z,14.80
2023-04-25T12:34:45.923Z,14.60
2023-04-25T12:37:13.879Z,14.40
2023-04-25T12:39:41.738Z,14.10
2023-04-25T12:42:12.709Z,13.70
2023-04-25T12:44:41.302Z,13.70
2023-04-25T12:47:09.293Z,13.70
2023-04-25T12:49:37.262Z,13.60
2023-04-25T12:52:05.183Z,13.40
2023-04-25T12:54:33.046Z,13.30
2023-04-25T12:57:02.496Z,13.40
2023-04-25T12:59:31.916Z,13.60
2023-04-25T13:01:59.864Z,14.30
2023-04-25T13:04:27.871Z,15.00
2023-04-25T13:06:56.234Z,15.20
2023-04-25T13:09:24.100Z,16.00
2023-04-25T13:11:53.011Z,16.20
2023-04-25T13:14:22.562Z,16.00
2023-04-25T13:16:51.846Z,15.70
2023-04-25T13:19:19.729Z,15.40
2023-04-25T13:21:47.705Z,15.30
2023-04-25T13:24:15.621Z,15.20
2023-04-25T13:26:43.839Z,15.20
2023-04-25T13:29:11.834Z,15.20
2023-04-25T13:31:39.709Z,15.10
2023-04-25T13:34:09.005Z,15.50
2023-04-25T13:36:37.116Z,16.10
2023-04-25T13:39:05.915Z,16.20
2023-04-25T13:41:33.736Z,15.90
2023-04-25T13:44:01.909Z,15.80
2023-04-25T13:46:44.605Z,15.60
2023-04-25T13:49:15.285Z,15.50
2023-04-25T13:51:43.361Z,15.30
2023-04-25T13:54:11.550Z,14.90
2023-04-25T13:56:39.497Z,14.70
2023-04-25T13:59:07.368Z,14.40
2023-04-25T14:01:36.653Z,14.10
2023-04-25T14:04:05.611Z,13.80
2023-04-25T14:06:34.937Z,13.50
2023-04-25T14:09:02.919Z,13.20
2023-04-25T14:11:30.879Z,12.90
2023-04-25T14:13:58.734Z,12.70
2023-04-25T14:16:26.988Z,12.40
2023-04-25T14:18:55.498Z,12.30
2023-04-25T14:21:23.370Z,12.20
2023-04-25T14:23:52.943Z,12.40
2023-04-25T14:26:21.241Z,13.20
2023-04-25T14:28:49.175Z,13.70
2023-04-25T14:31:17.408Z,13.80
2023-04-25T14:33:46.565Z,13.70
2023-04-25T14:36:15.326Z,13.80
2023-04-25T14:38:46.666Z,13.70
2023-04-25T14:41:15.916Z,13.70
2023-04-25T14:43:43.852Z,13.60
2023-04-25T14:46:13.032Z,13.20
2023-04-25T14:48:41.011Z,12.90
2023-04-25T14:51:09.065Z,12.60
2023-04-25T14:53:37.137Z,12.30
2023-04-25T14:56:05.692Z,12.10
2023-04-25T14:58:35.176Z,11.80
2023-04-25T15:01:03.540Z,11.60
2023-04-25T15:03:31.698Z,11.60
2023-04-25T15:05:59.745Z,11.40
2023-04-25T15:08:27.952Z,11.30
2023-04-25T15:10:55.867Z,11.20
2023-04-25T15:13:23.856Z,11.00
2023-04-25T15:15:54.955Z,10.90
2023-04-25T15:18:24.530Z,10.80
2023-04-25T15:20:53.177Z,10.60
2023-04-25T15:23:22.320Z,10.50
2023-04-25T15:25:51.770Z,10.40
2023-04-25T15:28:22.430Z,10.40
2023-04-25T15:30:50.635Z,10.40
2023-04-25T15:33:19.871Z,10.40
2023-04-25T15:35:47.717Z,10.50
2023-04-25T15:38:15.658Z,10.50
2023-04-25T15:40:43.549Z,10.40
2023-04-25T15:43:15.754Z,10.50
2023-04-25T15:45:43.940Z,10.50
2023-04-25T15:48:12.074Z,10.20
2023-04-25T15:50:42.304Z,10.10
2023-04-25T15:53:10.214Z,10.00
2023-04-25T15:55:38.337Z,9.80
2023-04-25T15:58:06.356Z,9.70
2023-04-25T16:00:36.274Z,9.60
2023-04-25T16:03:05.293Z,9.40
2023-04-25T16:05:33.355Z,9.40
2023-04-25T16:08:03.786Z,9.30
2023-04-25T16:10:31.676Z,9.30
2023-04-25T16:12:59.579Z,9.20
2023-04-25T16:15:27.438Z,9.10
2023-04-25T16:17:55.342Z,9.10
2023-04-25T16:20:23.881Z,9.00
2023-04-25T16:22:51.755Z,8.90
2023-04-25T16:25:22.001Z,8.90
2023-04-25T16:27:49.852Z,8.90
2023-04-25T16:30:17.813Z,8.90
2023-04-25T16:32:45.934Z,9.00
2023-04-25T16:35:13.908Z,9.00
2023-04-25T16:37:41.912Z,9.10
2023-04-25T16:40:10.113Z,9.10
2023-04-25T16:42:39.327Z,9.00
2023-04-25T16:45:07.605Z,9.10
2023-04-25T16:47:36.061Z,9.10
2023-04-25T16:50:04.254Z,9.10
2023-04-25T16:52:32.131Z,9.20
2023-04-25T16:55:00.024Z,9.20
2023-04-25T16:57:27.854Z,9.20
2023-04-25T16:59:57.824Z,9.10
2023-04-25T17:02:25.910Z,9.10
2023-04-25T17:04:54.067Z,9.00
2023-04-25T17:07:24.564Z,9.00
2023-04-25T17:09:52.484Z,9.00
2023-04-25T17:12:20.662Z,8.90
2023-04-25T17:14:48.581Z,8.90
2023-04-25T17:17:18.791Z,8.90
2023-04-25T17:19:47.132Z,8.80
2023-04-25T17:22:15.008Z,8.80
2023-04-25T17:24:42.910Z,8.70
2023-04-25T17:27:11.725Z,8.70
2023-04-25T17:29:39.599Z,8.60
2023-04-25T17:32:07.457Z,8.60
2023-04-25T17:34:37.860Z,8.50
2023-04-25T17:37:05.915Z,8.50
2023-04-25T17:39:33.890Z,8.50
2023-04-25T17:42:02.531Z,8.50
2023-04-25T17:44:30.433Z,8.50
2023-04-25T17:46:58.279Z,8.50
2023-04-25T17:49:26.104Z,8.40
2023-04-25T17:51:55.295Z,8.40
2023-04-25T17:54:23.238Z,8.40
2023-04-25T17:56:51.358Z,8.40
2023-04-25T17:59:20.021Z,8.40
2023-04-25T18:01:48.381Z,8.40
2023-04-25T18:04:17.537Z,8.30
2023-04-25T18:06:45.470Z,8.30
2023-04-25T18:09:18.159Z,8.20
2023-04-25T18:11:46.625Z,8.20
2023-04-25T18:14:15.770Z,8.10
2023-04-25T18:16:43.817Z,8.10
2023-04-25T18:19:15.490Z,8.10
2023-04-25T18:21:45.306Z,8.00
2023-04-25T18:24:16.955Z,8.00
2023-04-25T18:26:44.931Z,8.00
2023-04-25T18:29:29.088Z,7.90
2023-04-25T18:32:00.763Z,7.90
2023-04-25T18:34:28.696Z,7.90
2023-04-25T18:36:56.852Z,7.80
2023-04-25T18:39:27.750Z,7.80
2023-04-25T18:42:02.537Z,7.70
2023-04-25T18:44:35.580Z,7.70
2023-04-25T18:47:03.494Z,7.60
2023-04-25T18:49:32.280Z,7.60
2023-04-25T18:52:00.776Z,7.50
2023-04-25T18:54:30.397Z,7.50
2023-04-25T18:57:00.844Z,7.40
2023-04-25T18:59:28.814Z,7.40
2023-04-25T19:01:56.687Z,7.40
2023-04-25T19:04:24.702Z,7.40
2023-04-25T19:06:54.185Z,7.30
2023-04-25T19:09:22.068Z,7.30
2023-04-25T19:11:51.314Z,7.20
2023-04-25T19:14:19.181Z,7.20
2023-04-25T19:16:47.084Z,7.20
2023-04-25T19:19:15.003Z,7.10
2023-04-25T19:21:42.881Z,7.10
2023-04-25T19:24:11.407Z,7.10
2023-04-25T19:26:39.304Z,7.10
2023-04-25T19:29:09.421Z,7.10
2023-04-25T19:31:38.218Z,7.10
2023-04-25T19:34:06.664Z,7.00
2023-04-25T19:36:34.770Z,7.00
2023-04-25T19:39:04.520Z,7.00
2023-04-25T19:41:33.409Z,7.00
2023-04-25T19:44:01.801Z,7.00
2023-04-25T19:46:31.838Z,6.90
2023-04-25T19:49:00.145Z,6.90
2023-04-25T19:51:28.354Z,6.90
2023-04-25T19:53:56.485Z,6.90
2023-04-25T19:56:24.647Z,6.90
2023-04-25T19:58:52.829Z,6.90
2023-04-25T20:01:22.627Z,6.90
2023-04-25T20:03:52.787Z,6.90
2023-04-25T20:06:21.079Z,6.80
2023-04-25T20:08:48.947Z,6.80
2023-04-25T20:11:16.825Z,6.80
2023-04-25T20:13:44.886Z,6.80
2023-04-25T20:16:12.885Z,6.70
2023-04-25T20:18:41.535Z,6.70
2023-04-25T20:21:10.879Z,6.70
2023-04-25T20:23:38.758Z,6.70
2023-04-25T20:26:06.600Z,6.70
2023-04-25T20:28:35.466Z,6.70
2023-04-25T20:31:04.014Z,6.60
2023-04-25T20:33:31.890Z,6.60
2023-04-25T20:35:59.727Z,6.60
2023-04-25T20:38:28.964Z,6.60
2023-04-25T20:40:56.838Z,6.60
2023-04-25T20:43:25.804Z,6.50
2023-04-25T20:45:54.853Z,6.50
2023-04-25T20:48:23.042Z,6.50
2023-04-25T20:50:51.504Z,6.50
2023-04-25T20:53:19.462Z,6.40
2023-04-25T20:55:48.814Z,6.40
2023-04-25T20:58:16.656Z,6.40
2023-04-25T21:00:47.392Z,6.40
2023-04-25T21:03:16.106Z,6.30
2023-04-25T21:05:44.077Z,6.30
2023-04-25T21:08:11.960Z,6.30
2023-04-25T21:10:39.881Z,6.30
2023-04-25T21:13:09.132Z,6.30
2023-04-25T21:15:37.066Z,6.20
2023-04-25T21:18:05.179Z,6.30
2023-04-25T21:20:33.094Z,6.20
2023-04-25T21:23:00.948Z,6.20
2023-04-25T21:25:31.272Z,6.20
2023-04-25T21:27:59.958Z,6.10
2023-04-25T21:30:29.841Z,6.10
2023-04-25T21:32:57.845Z,6.10
2023-04-25T21:35:25.973Z,6.10
2023-04-25T21:37:53.819Z,6.10
2023-04-25T21:40:22.103Z,6.00
2023-04-25T21:42:52.663Z,6.00
2023-04-25T21:45:21.002Z,6.00
2023-04-25T21:47:50.691Z,5.90
2023-04-25T21:50:18.905Z,5.90
2023-04-25T21:52:46.986Z,5.80
2023-04-25T21:55:14.946Z,5.80
2023-04-25T21:57:42.895Z,5.80
2023-04-25T22:00:20.950Z,5.80
2023-04-25T22:02:51.052Z,5.80
2023-04-25T22:05:20.431Z,5.70
2023-04-25T22:07:48.386Z,5.80
2023-04-25T22:10:16.344Z,5.70
2023-04-25T22:12:44.698Z,5.70
2023-04-25T22:15:13.699Z,5.70
2023-04-25T22:17:41.627Z,5.70
2023-04-25T22:20:14.124Z,5.70
2023-04-25T22:22:42.206Z,5.70
2023-04-25T22:25:11.966Z,5.70
2023-04-25T22:27:40.855Z,5.70
2023-04-25T22:30:09.746Z,5.70
2023-04-25T22:32:37.941Z,5.70
2023-04-25T22:35:06.134Z,5.60
2023-04-25T22:37:35.900Z,5.60
2023-04-25T22:40:05.674Z,5.60
2023-04-25T22:42:38.106Z,5.60
2023-04-25T22:45:08.066Z,5.60
2023-04-25T22:47:36.152Z,5.60
2023-04-25T22:50:05.768Z,5.60
2023-04-25T22:52:35.121Z,5.60
2023-04-25T22:55:04.402Z,5.50
2023-04-25T22:57:33.039Z,5.50
2023-04-25T23:00:01.645Z,5.50
2023-04-25T23:02:29.608Z,5.50
2023-04-25T23:04:57.560Z,5.50
2023-04-25T23:07:26.091Z,5.50
2023-04-25T23:09:55.575Z,5.50
2023-04-25T23:12:23.825Z,5.50
2023-04-25T23:14:52.696Z,5.50
2023-04-25T23:17:21.355Z,5.40
2023-04-25T23:19:49.325Z,5.50
2023-04-25T23:22:17.259Z,5.40
2023-04-25T23:24:45.964Z,5.40
2023-04-25T23:27:15.244Z,5.40
2023-04-25T23:29:43.100Z,5.40
2023-04-25T23:32:12.584Z,5.30
2023-04-25T23:34:40.609Z,5.30
2023-04-25T23:37:08.466Z,5.20
2023-04-25T23:39:36.285Z,5.20
2023-04-25T23:42:04.160Z,5.10
2023-04-25T23:44:33.381Z,5.00
2023-04-25T23:47:01.202Z,5.10
2023-04-25T23:49:29.073Z,5.00
2023-04-25T23:51:56.953Z,5.10
2023-04-25T23:54:24.789Z,5.00
2023-04-25T23:56:52.659Z,5.00
2023-04-25T23:59:20.989Z,5.00
